sensor_id;sensor_type;location;lat;lon;timestamp;pressure;altitude;pressure_sealevel;temperature;humidity
38616;BME280;24370;51.986;4.666;2022-10-31T00:00:50;102092.44;;;22.83;43.40
38616;BME280;24370;51.986;4.666;2022-10-31T00:03:17;102093.13;;;23.09;42.18
38616;BME280;24370;51.986;4.666;2022-10-31T00:05:47;102088.69;;;22.67;42.69
38616;BME280;24370;51.986;4.666;2022-10-31T00:08:14;102088.81;;;22.84;42.76
38616;BME280;24370;51.986;4.666;2022-10-31T00:10:40;102093.94;;;22.46;43.68
38616;BME280;24370;51.986;4.666;2022-10-31T00:13:07;102091.75;;;22.78;42.98
38616;BME280;24370;51.986;4.666;2022-10-31T00:15:37;102091.91;;;22.75;43.52
38616;BME280;24370;51.986;4.666;2022-10-31T00:18:04;102091.31;;;22.45;43.84
38616;BME280;24370;51.986;4.666;2022-10-31T00:20:30;102090.09;;;22.76;43.61
38616;BME280;24370;51.986;4.666;2022-10-31T00:23:00;102093.47;;;22.59;43.73
38616;BME280;24370;51.986;4.666;2022-10-31T00:25:27;102094.81;;;22.47;43.89
38616;BME280;24370;51.986;4.666;2022-10-31T00:27:53;102095.66;;;22.47;43.55
38616;BME280;24370;51.986;4.666;2022-10-31T00:30:18;102099.91;;;22.75;43.29
38616;BME280;24370;51.986;4.666;2022-10-31T00:32:44;102103.84;;;22.65;43.22
38616;BME280;24370;51.986;4.666;2022-10-31T00:35:09;102104.47;;;22.49;43.47
38616;BME280;24370;51.986;4.666;2022-10-31T00:37:35;102103.59;;;22.49;43.20
38616;BME280;24370;51.986;4.666;2022-10-31T00:40:00;102107.16;;;22.26;43.73
38616;BME280;24370;51.986;4.666;2022-10-31T00:42:26;102111.66;;;22.24;43.39
38616;BME280;24370;51.986;4.666;2022-10-31T00:44:51;102116.09;;;22.01;44.22
38616;BME280;24370;51.986;4.666;2022-10-31T00:47:16;102107.94;;;21.82;44.73
38616;BME280;24370;51.986;4.666;2022-10-31T00:49:42;102113.53;;;21.98;44.41
38616;BME280;24370;51.986;4.666;2022-10-31T00:52:07;102117.47;;;21.88;44.11
38616;BME280;24370;51.986;4.666;2022-10-31T00:54:32;102109.94;;;21.99;44.38
38616;BME280;24370;51.986;4.666;2022-10-31T00:56:58;102112.16;;;21.37;46.43
38616;BME280;24370;51.986;4.666;2022-10-31T00:59:23;102121.81;;;21.40;45.80
38616;BME280;24370;51.986;4.666;2022-10-31T01:01:49;102114.34;;;21.76;45.73
38616;BME280;24370;51.986;4.666;2022-10-31T01:04:14;102091.38;;;21.97;45.11
38616;BME280;24370;51.986;4.666;2022-10-31T01:06:40;102089.34;;;22.04;44.55
38616;BME280;24370;51.986;4.666;2022-10-31T01:09:05;102078.00;;;21.99;44.63
38616;BME280;24370;51.986;4.666;2022-10-31T01:11:31;102078.28;;;21.91;44.92
38616;BME280;24370;51.986;4.666;2022-10-31T01:13:56;102083.34;;;21.99;44.79
38616;BME280;24370;51.986;4.666;2022-10-31T01:16:24;102097.09;;;21.86;44.77
38616;BME280;24370;51.986;4.666;2022-10-31T01:18:51;102095.72;;;22.00;44.62
38616;BME280;24370;51.986;4.666;2022-10-31T01:21:25;102087.16;;;21.92;44.38
38616;BME280;24370;51.986;4.666;2022-10-31T01:23:53;102085.72;;;22.07;44.19
38616;BME280;24370;51.986;4.666;2022-10-31T01:26:21;102074.50;;;22.20;43.59
38616;BME280;24370;51.986;4.666;2022-10-31T01:28:52;102076.53;;;21.68;45.32
38616;BME280;24370;51.986;4.666;2022-10-31T01:31:20;102081.34;;;21.57;45.46
38616;BME280;24370;51.986;4.666;2022-10-31T01:33:46;102080.69;;;21.75;44.59
38616;BME280;24370;51.986;4.666;2022-10-31T01:38:46;102075.25;;;21.78;44.33
38616;BME280;24370;51.986;4.666;2022-10-31T01:41:14;102079.28;;;21.65;44.30
38616;BME280;24370;51.986;4.666;2022-10-31T01:43:45;102072.00;;;21.70;44.64
38616;BME280;24370;51.986;4.666;2022-10-31T01:46:11;102067.59;;;21.69;44.08
38616;BME280;24370;51.986;4.666;2022-10-31T01:48:37;102072.31;;;21.61;44.33
38616;BME280;24370;51.986;4.666;2022-10-31T01:51:04;102068.09;;;21.55;44.45
38616;BME280;24370;51.986;4.666;2022-10-31T01:53:31;102069.84;;;21.31;44.85
38616;BME280;24370;51.986;4.666;2022-10-31T01:55:57;102070.38;;;21.15;45.33
38616;BME280;24370;51.986;4.666;2022-10-31T01:58:25;102070.38;;;21.41;44.38
38616;BME280;24370;51.986;4.666;2022-10-31T02:00:56;102066.47;;;21.26;44.84
38616;BME280;24370;51.986;4.666;2022-10-31T02:03:24;102065.06;;;21.15;45.24
38616;BME280;24370;51.986;4.666;2022-10-31T02:05:52;102067.34;;;21.51;44.51
38616;BME280;24370;51.986;4.666;2022-10-31T02:08:30;102069.16;;;21.49;44.82
38616;BME280;24370;51.986;4.666;2022-10-31T02:10:58;102070.50;;;21.63;44.29
38616;BME280;24370;51.986;4.666;2022-10-31T02:13:25;102069.72;;;21.34;44.97
38616;BME280;24370;51.986;4.666;2022-10-31T02:15:56;102070.16;;;21.22;44.93
38616;BME280;24370;51.986;4.666;2022-10-31T02:18:24;102067.78;;;21.39;45.49
38616;BME280;24370;51.986;4.666;2022-10-31T02:21:19;102068.00;;;21.33;45.28
38616;BME280;24370;51.986;4.666;2022-10-31T02:35:24;102068.22;;;21.27;45.00
38616;BME280;24370;51.986;4.666;2022-10-31T02:38:24;102071.47;;;21.35;44.54
38616;BME280;24370;51.986;4.666;2022-10-31T02:41:09;102071.34;;;21.38;44.47
38616;BME280;24370;51.986;4.666;2022-10-31T02:49:02;102072.16;;;20.90;45.97
38616;BME280;24370;51.986;4.666;2022-10-31T02:51:30;102064.31;;;21.12;45.34
38616;BME280;24370;51.986;4.666;2022-10-31T02:53:55;102065.81;;;20.94;44.82
38616;BME280;24370;51.986;4.666;2022-10-31T02:56:21;102063.53;;;20.83;45.51
38616;BME280;24370;51.986;4.666;2022-10-31T02:58:50;102062.34;;;20.92;45.61
38616;BME280;24370;51.986;4.666;2022-10-31T03:06:44;102065.81;;;20.94;45.40
38616;BME280;24370;51.986;4.666;2022-10-31T03:17:07;102065.84;;;20.65;46.69
38616;BME280;24370;51.986;4.666;2022-10-31T03:19:40;102069.28;;;20.96;45.94
38616;BME280;24370;51.986;4.666;2022-10-31T03:22:21;102066.69;;;21.19;45.69
38616;BME280;24370;51.986;4.666;2022-10-31T03:24:48;102065.81;;;20.94;45.24
38616;BME280;24370;51.986;4.666;2022-10-31T03:27:20;102060.16;;;20.78;46.47
38616;BME280;24370;51.986;4.666;2022-10-31T03:29:48;102062.34;;;20.92;46.12
38616;BME280;24370;51.986;4.666;2022-10-31T03:32:20;102066.41;;;20.75;46.92
38616;BME280;24370;51.986;4.666;2022-10-31T03:34:49;102068.75;;;21.11;45.69
38616;BME280;24370;51.986;4.666;2022-10-31T03:37:18;102065.59;;;21.00;45.76
38616;BME280;24370;51.986;4.666;2022-10-31T03:39:46;102070.47;;;20.59;47.22
38616;BME280;24370;51.986;4.666;2022-10-31T03:42:41;102069.84;;;20.50;47.79
38616;BME280;24370;51.986;4.666;2022-10-31T03:45:14;102067.03;;;20.83;46.30
38616;BME280;24370;51.986;4.666;2022-10-31T03:47:43;102062.56;;;20.86;46.13
38616;BME280;24370;51.986;4.666;2022-10-31T03:50:11;102059.53;;;21.22;45.23
38616;BME280;24370;51.986;4.666;2022-10-31T03:53:08;102060.56;;;21.17;45.51
38616;BME280;24370;51.986;4.666;2022-10-31T03:55:41;102055.50;;;21.10;45.92
38616;BME280;24370;51.986;4.666;2022-10-31T03:58:26;102056.56;;;20.50;46.97
38616;BME280;24370;51.986;4.666;2022-10-31T04:00:54;102061.38;;;20.66;46.76
38616;BME280;24370;51.986;4.666;2022-10-31T04:03:24;102050.84;;;20.91;45.74
38616;BME280;24370;51.986;4.666;2022-10-31T04:05:54;102056.69;;;20.47;47.17
38616;BME280;24370;51.986;4.666;2022-10-31T04:08:23;102058.44;;;20.75;46.91
38616;BME280;24370;51.986;4.666;2022-10-31T04:10:51;102062.63;;;20.82;45.98
38616;BME280;24370;51.986;4.666;2022-10-31T04:13:22;102058.72;;;21.19;45.21
38616;BME280;24370;51.986;4.666;2022-10-31T04:15:50;102055.44;;;21.11;45.35
38616;BME280;24370;51.986;4.666;2022-10-31T04:18:17;102056.16;;;20.91;46.13
38616;BME280;24370;51.986;4.666;2022-10-31T04:20:42;102055.56;;;21.08;45.32
38616;BME280;24370;51.986;4.666;2022-10-31T04:23:19;102056.34;;;20.85;45.88
38616;BME280;24370;51.986;4.666;2022-10-31T04:25:44;102060.91;;;20.53;46.68
38616;BME280;24370;51.986;4.666;2022-10-31T04:28:10;102061.00;;;21.05;45.67
38616;BME280;24370;51.986;4.666;2022-10-31T04:30:35;102056.97;;;20.93;45.55
38616;BME280;24370;51.986;4.666;2022-10-31T04:33:00;102066.78;;;20.91;45.86
38616;BME280;24370;51.986;4.666;2022-10-31T04:35:25;102060.28;;;21.00;45.45
38616;BME280;24370;51.986;4.666;2022-10-31T04:37:51;102055.06;;;20.97;45.54
38616;BME280;24370;51.986;4.666;2022-10-31T04:40:16;102052.47;;;20.95;45.11
38616;BME280;24370;51.986;4.666;2022-10-31T04:42:42;102059.91;;;20.57;45.90
38616;BME280;24370;51.986;4.666;2022-10-31T04:45:07;102052.34;;;20.73;46.17
38616;BME280;24370;51.986;4.666;2022-10-31T04:47:33;102049.03;;;20.92;45.48
38616;BME280;24370;51.986;4.666;2022-10-31T04:49:59;102055.22;;;20.65;45.88
38616;BME280;24370;51.986;4.666;2022-10-31T04:52:24;102052.66;;;20.62;46.09
38616;BME280;24370;51.986;4.666;2022-10-31T04:54:49;102053.19;;;20.45;46.38
38616;BME280;24370;51.986;4.666;2022-10-31T04:57:15;102053.56;;;20.61;45.81
38616;BME280;24370;51.986;4.666;2022-10-31T04:59:40;102055.00;;;20.73;45.63
38616;BME280;24370;51.986;4.666;2022-10-31T05:02:05;102056.28;;;20.60;45.60
38616;BME280;24370;51.986;4.666;2022-10-31T05:04:31;102050.97;;;20.60;45.78
38616;BME280;24370;51.986;4.666;2022-10-31T05:06:56;102058.91;;;20.33;46.42
38616;BME280;24370;51.986;4.666;2022-10-31T05:09:21;102049.38;;;20.54;46.41
38616;BME280;24370;51.986;4.666;2022-10-31T05:11:47;102042.09;;;20.61;46.22
38616;BME280;24370;51.986;4.666;2022-10-31T05:14:12;102047.28;;;20.64;46.52
38616;BME280;24370;51.986;4.666;2022-10-31T05:16:37;102047.19;;;20.40;47.45
38616;BME280;24370;51.986;4.666;2022-10-31T05:19:03;102046.25;;;20.13;47.53
38616;BME280;24370;51.986;4.666;2022-10-31T05:21:28;102031.94;;;20.45;46.95
38616;BME280;24370;51.986;4.666;2022-10-31T05:23:53;102026.34;;;20.55;46.27
38616;BME280;24370;51.986;4.666;2022-10-31T05:26:19;102036.16;;;20.53;45.68
38616;BME280;24370;51.986;4.666;2022-10-31T05:28:44;102029.63;;;20.34;46.39
38616;BME280;24370;51.986;4.666;2022-10-31T05:31:09;102030.31;;;20.41;45.67
38616;BME280;24370;51.986;4.666;2022-10-31T05:33:35;102026.75;;;20.42;46.34
38616;BME280;24370;51.986;4.666;2022-10-31T05:36:00;102029.41;;;20.42;46.00
38616;BME280;24370;51.986;4.666;2022-10-31T05:38:26;102030.69;;;20.29;46.42
38616;BME280;24370;51.986;4.666;2022-10-31T05:40:54;102031.09;;;20.45;45.78
38616;BME280;24370;51.986;4.666;2022-10-31T05:43:22;102033.31;;;20.30;46.61
38616;BME280;24370;51.986;4.666;2022-10-31T05:45:52;102038.94;;;20.21;46.50
38616;BME280;24370;51.986;4.666;2022-10-31T05:48:17;102028.78;;;20.34;46.14
38616;BME280;24370;51.986;4.666;2022-10-31T05:50:42;102033.50;;;19.96;46.38
38616;BME280;24370;51.986;4.666;2022-10-31T05:53:08;102029.28;;;20.19;45.90
38616;BME280;24370;51.986;4.666;2022-10-31T05:55:33;102033.31;;;20.02;46.84
38616;BME280;24370;51.986;4.666;2022-10-31T05:57:59;102028.88;;;19.71;47.37
38616;BME280;24370;51.986;4.666;2022-10-31T06:00:24;102032.00;;;19.56;47.51
38616;BME280;24370;51.986;4.666;2022-10-31T06:02:58;102037.84;;;19.67;47.97
38616;BME280;24370;51.986;4.666;2022-10-31T06:05:23;102024.09;;;20.14;46.86
38616;BME280;24370;51.986;4.666;2022-10-31T06:07:49;102031.56;;;20.01;47.08
38616;BME280;24370;51.986;4.666;2022-10-31T06:10:14;102018.44;;;20.25;46.53
38616;BME280;24370;51.986;4.666;2022-10-31T06:12:40;102027.91;;;20.05;46.95
38616;BME280;24370;51.986;4.666;2022-10-31T06:15:08;102027.63;;;20.14;46.49
38616;BME280;24370;51.986;4.666;2022-10-31T06:17:34;102038.53;;;20.05;46.69
38616;BME280;24370;51.986;4.666;2022-10-31T06:20:00;102034.13;;;20.04;46.88
38616;BME280;24370;51.986;4.666;2022-10-31T06:22:26;102038.72;;;19.99;46.77
38616;BME280;24370;51.986;4.666;2022-10-31T06:24:51;102028.88;;;20.31;45.59
38616;BME280;24370;51.986;4.666;2022-10-31T06:27:17;102039.91;;;20.45;45.77
38616;BME280;24370;51.986;4.666;2022-10-31T06:29:42;102046.00;;;19.92;47.02
38616;BME280;24370;51.986;4.666;2022-10-31T06:32:11;102038.75;;;19.97;47.19
38616;BME280;24370;51.986;4.666;2022-10-31T06:34:37;102044.47;;;19.21;48.74
38616;BME280;24370;51.986;4.666;2022-10-31T06:37:03;102033.94;;;19.49;48.16
38616;BME280;24370;51.986;4.666;2022-10-31T06:39:28;102044.66;;;19.46;47.82
38616;BME280;24370;51.986;4.666;2022-10-31T06:41:53;102040.97;;;19.19;48.62
38616;BME280;24370;51.986;4.666;2022-10-31T06:44:19;102036.91;;;19.38;47.53
38616;BME280;24370;51.986;4.666;2022-10-31T06:46:46;102040.19;;;19.78;46.93
38616;BME280;24370;51.986;4.666;2022-10-31T06:49:13;102038.22;;;19.55;47.41
38616;BME280;24370;51.986;4.666;2022-10-31T06:51:38;102032.84;;;19.58;47.16
38616;BME280;24370;51.986;4.666;2022-10-31T06:54:03;102034.75;;;19.84;46.84
38616;BME280;24370;51.986;4.666;2022-10-31T06:56:29;102025.59;;;19.63;47.60
38616;BME280;24370;51.986;4.666;2022-10-31T06:58:54;102032.66;;;19.64;47.32
38616;BME280;24370;51.986;4.666;2022-10-31T07:01:20;102042.00;;;19.13;48.96
38616;BME280;24370;51.986;4.666;2022-10-31T07:03:45;102056.56;;;19.62;47.88
38616;BME280;24370;51.986;4.666;2022-10-31T07:06:10;102054.91;;;19.58;47.54
38616;BME280;24370;51.986;4.666;2022-10-31T07:08:36;102051.81;;;19.09;48.58
38616;BME280;24370;51.986;4.666;2022-10-31T07:11:01;102045.41;;;18.84;49.49
38616;BME280;24370;51.986;4.666;2022-10-31T07:13:26;102050.47;;;19.59;48.11
38616;BME280;24370;51.986;4.666;2022-10-31T07:15:53;102052.91;;;19.35;48.54
38616;BME280;24370;51.986;4.666;2022-10-31T07:18:20;102058.16;;;19.37;48.78
38616;BME280;24370;51.986;4.666;2022-10-31T07:20:45;102058.19;;;19.35;48.80
38616;BME280;24370;51.986;4.666;2022-10-31T07:23:11;102053.75;;;19.04;49.82
38616;BME280;24370;51.986;4.666;2022-10-31T07:25:38;102058.91;;;19.42;49.34
38616;BME280;24370;51.986;4.666;2022-10-31T07:28:04;102058.44;;;19.26;49.51
38616;BME280;24370;51.986;4.666;2022-10-31T07:30:29;102058.63;;;19.20;49.17
38616;BME280;24370;51.986;4.666;2022-10-31T07:32:55;102063.28;;;18.75;50.98
38616;BME280;24370;51.986;4.666;2022-10-31T07:35:23;102061.56;;;19.42;49.82
38616;BME280;24370;51.986;4.666;2022-10-31T07:37:49;102059.63;;;19.15;50.96
38616;BME280;24370;51.986;4.666;2022-10-31T07:40:15;102062.22;;;19.17;50.88
38616;BME280;24370;51.986;4.666;2022-10-31T07:42:43;102058.09;;;19.38;50.70
38616;BME280;24370;51.986;4.666;2022-10-31T07:45:10;102056.44;;;19.01;51.98
38616;BME280;24370;51.986;4.666;2022-10-31T07:47:40;102064.84;;;19.83;49.72
38616;BME280;24370;51.986;4.666;2022-10-31T07:50:06;102063.63;;;20.23;49.13
38616;BME280;24370;51.986;4.666;2022-10-31T07:52:32;102055.81;;;20.19;49.36
38616;BME280;24370;51.986;4.666;2022-10-31T07:54:57;102049.72;;;20.43;48.69
38616;BME280;24370;51.986;4.666;2022-10-31T07:57:23;102063.63;;;20.23;48.79
38616;BME280;24370;51.986;4.666;2022-10-31T07:59:49;102053.19;;;20.45;48.49
38616;BME280;24370;51.986;4.666;2022-10-31T08:02:15;102063.72;;;19.59;50.36
38616;BME280;24370;51.986;4.666;2022-10-31T08:04:40;102057.25;;;19.69;50.22
38616;BME280;24370;51.986;4.666;2022-10-31T08:07:05;102055.34;;;19.74;50.27
38616;BME280;24370;51.986;4.666;2022-10-31T08:09:31;102055.31;;;20.06;49.05
38616;BME280;24370;51.986;4.666;2022-10-31T08:11:56;102053.97;;;20.21;49.04
38616;BME280;24370;51.986;4.666;2022-10-31T08:14:21;102048.72;;;19.89;50.21
38616;BME280;24370;51.986;4.666;2022-10-31T08:16:47;102051.06;;;20.00;49.64
38616;BME280;24370;51.986;4.666;2022-10-31T08:19:13;102053.44;;;20.09;50.29
38616;BME280;24370;51.986;4.666;2022-10-31T08:21:38;102047.59;;;20.55;49.10
38616;BME280;24370;51.986;4.666;2022-10-31T08:24:04;102047.59;;;20.55;49.30
38616;BME280;24370;51.986;4.666;2022-10-31T08:26:29;102040.84;;;20.44;49.91
38616;BME280;24370;51.986;4.666;2022-10-31T08:28:55;102038.50;;;20.62;48.79
38616;BME280;24370;51.986;4.666;2022-10-31T08:31:21;102043.28;;;20.24;50.67
38616;BME280;24370;51.986;4.666;2022-10-31T08:33:48;102039.16;;;20.42;50.29
38616;BME280;24370;51.986;4.666;2022-10-31T08:36:13;102041.31;;;20.84;49.28
38616;BME280;24370;51.986;4.666;2022-10-31T08:38:38;102050.19;;;20.84;49.39
38616;BME280;24370;51.986;4.666;2022-10-31T08:41:04;102053.97;;;20.77;49.16
38616;BME280;24370;51.986;4.666;2022-10-31T08:43:29;102054.09;;;21.25;48.47
38616;BME280;24370;51.986;4.666;2022-10-31T08:45:54;102045.56;;;21.40;47.65
38616;BME280;24370;51.986;4.666;2022-10-31T08:48:20;102043.94;;;21.85;46.86
38616;BME280;24370;51.986;4.666;2022-10-31T08:50:46;102035.03;;;21.86;47.20
38616;BME280;24370;51.986;4.666;2022-10-31T08:55:41;102032.56;;;21.58;48.10
38616;BME280;24370;51.986;4.666;2022-10-31T08:58:10;102030.13;;;21.75;47.65
38616;BME280;24370;51.986;4.666;2022-10-31T09:00:36;102025.75;;;22.18;47.51
38616;BME280;24370;51.986;4.666;2022-10-31T09:03:04;102023.56;;;22.52;46.87
38616;BME280;24370;51.986;4.666;2022-10-31T09:05:30;102020.41;;;22.64;46.53
38616;BME280;24370;51.986;4.666;2022-10-31T09:08:00;102011.31;;;22.26;47.52
38616;BME280;24370;51.986;4.666;2022-10-31T09:10:26;102003.38;;;22.46;47.78
38616;BME280;24370;51.986;4.666;2022-10-31T09:15:21;102006.09;;;22.87;47.30
38616;BME280;24370;51.986;4.666;2022-10-31T09:17:48;101996.03;;;22.51;48.91
38616;BME280;24370;51.986;4.666;2022-10-31T09:20:13;101990.63;;;22.75;48.78
38616;BME280;24370;51.986;4.666;2022-10-31T09:22:39;101994.91;;;22.79;48.26
38616;BME280;24370;51.986;4.666;2022-10-31T09:25:04;101993.78;;;23.45;48.16
38616;BME280;24370;51.986;4.666;2022-10-31T09:27:30;101985.13;;;23.59;47.08
38616;BME280;24370;51.986;4.666;2022-10-31T09:29:55;101978.72;;;23.82;46.67
38616;BME280;24370;51.986;4.666;2022-10-31T09:32:20;101973.41;;;24.00;46.43
38616;BME280;24370;51.986;4.666;2022-10-31T09:34:46;101963.63;;;24.00;45.74
38616;BME280;24370;51.986;4.666;2022-10-31T09:37:11;101967.00;;;23.85;46.23
38616;BME280;24370;51.986;4.666;2022-10-31T09:39:36;101976.91;;;23.64;46.80
38616;BME280;24370;51.986;4.666;2022-10-31T09:45:18;101962.81;;;24.52;44.41
38616;BME280;24370;51.986;4.666;2022-10-31T09:50:54;101955.91;;;24.66;45.19
38616;BME280;24370;51.986;4.666;2022-10-31T09:53:31;101967.50;;;23.93;46.39
38616;BME280;24370;51.986;4.666;2022-10-31T09:55:59;101957.75;;;24.29;45.60
38616;BME280;24370;51.986;4.666;2022-10-31T09:58:27;101962.09;;;24.31;46.35
38616;BME280;24370;51.986;4.666;2022-10-31T10:00:57;101953.69;;;24.74;45.61
38616;BME280;24370;51.986;4.666;2022-10-31T10:03:38;101950.09;;;25.09;45.39
38616;BME280;24370;51.986;4.666;2022-10-31T10:06:15;101953.28;;;24.99;45.26
38616;BME280;24370;51.986;4.666;2022-10-31T10:08:42;101951.34;;;24.85;45.72
38616;BME280;24370;51.986;4.666;2022-10-31T10:14:25;101942.13;;;25.24;45.18
38616;BME280;24370;51.986;4.666;2022-10-31T10:22:46;101925.97;;;25.10;45.37
38616;BME280;24370;51.986;4.666;2022-10-31T10:25:14;101930.63;;;24.73;45.47
38616;BME280;24370;51.986;4.666;2022-10-31T10:32:47;101912.00;;;24.87;45.35
38616;BME280;24370;51.986;4.666;2022-10-31T10:35:25;101904.38;;;24.64;46.21
38616;BME280;24370;51.986;4.666;2022-10-31T10:37:57;101901.59;;;25.64;44.66
38616;BME280;24370;51.986;4.666;2022-10-31T10:40:27;101892.94;;;25.75;44.84
38616;BME280;24370;51.986;4.666;2022-10-31T10:51:45;101891.03;;;25.13;44.88
38616;BME280;24370;51.986;4.666;2022-10-31T10:57:29;101884.38;;;24.71;46.33
38616;BME280;24370;51.986;4.666;2022-10-31T11:00:34;101866.66;;;24.86;46.36
38616;BME280;24370;51.986;4.666;2022-10-31T11:02:58;101867.25;;;26.03;44.62
38616;BME280;24370;51.986;4.666;2022-10-31T11:05:37;101867.47;;;26.14;44.02
38616;BME280;24370;51.986;4.666;2022-10-31T11:08:05;101868.91;;;26.05;43.91
38616;BME280;24370;51.986;4.666;2022-10-31T11:10:31;101874.47;;;25.70;44.11
38616;BME280;24370;51.986;4.666;2022-10-31T11:13:22;101867.84;;;25.62;45.11
38616;BME280;24370;51.986;4.666;2022-10-31T11:15:58;101866.84;;;24.99;46.65
38616;BME280;24370;51.986;4.666;2022-10-31T11:18:26;101875.28;;;25.07;46.37
38616;BME280;24370;51.986;4.666;2022-10-31T11:20:55;101864.06;;;24.84;46.58
38616;BME280;24370;51.986;4.666;2022-10-31T11:23:23;101863.91;;;25.19;45.07
38616;BME280;24370;51.986;4.666;2022-10-31T11:26:00;101848.28;;;24.96;46.44
38616;BME280;24370;51.986;4.666;2022-10-31T11:28:27;101845.91;;;25.71;44.83
38616;BME280;24370;51.986;4.666;2022-10-31T11:33:21;101838.78;;;25.86;44.47
38616;BME280;24370;51.986;4.666;2022-10-31T11:35:48;101841.16;;;25.60;44.42
38616;BME280;24370;51.986;4.666;2022-10-31T11:38:19;101834.84;;;26.07;43.47
38616;BME280;24370;51.986;4.666;2022-10-31T11:41:35;101821.53;;;26.06;44.04
38616;BME280;24370;51.986;4.666;2022-10-31T11:43:54;101809.44;;;25.99;43.65
38616;BME280;24370;51.986;4.666;2022-10-31T11:46:37;101805.34;;;26.38;42.45
38616;BME280;24370;51.986;4.666;2022-10-31T11:49:05;101803.56;;;26.22;43.11
38616;BME280;24370;51.986;4.666;2022-10-31T11:51:33;101813.56;;;26.49;43.30
38616;BME280;24370;51.986;4.666;2022-10-31T11:54:01;101806.91;;;26.71;42.59
38616;BME280;24370;51.986;4.666;2022-10-31T11:56:36;101812.63;;;26.50;43.00
38616;BME280;24370;51.986;4.666;2022-10-31T11:59:05;101815.50;;;26.76;42.56
38616;BME280;24370;51.986;4.666;2022-10-31T12:01:32;101802.34;;;27.42;41.39
38616;BME280;24370;51.986;4.666;2022-10-31T12:04:10;101796.50;;;27.63;40.89
38616;BME280;24370;51.986;4.666;2022-10-31T12:06:38;101787.66;;;27.20;41.46
38616;BME280;24370;51.986;4.666;2022-10-31T12:09:28;101782.47;;;27.17;41.58
38616;BME280;24370;51.986;4.666;2022-10-31T12:12:09;101778.41;;;27.39;41.22
38616;BME280;24370;51.986;4.666;2022-10-31T12:30:49;101716.31;;;27.84;40.53
38616;BME280;24370;51.986;4.666;2022-10-31T12:52:29;101652.59;;;27.07;41.53
38616;BME280;24370;51.986;4.666;2022-10-31T12:57:45;101638.38;;;26.92;41.37
38616;BME280;24370;51.986;4.666;2022-10-31T13:00:17;101639.25;;;26.36;43.62
38616;BME280;24370;51.986;4.666;2022-10-31T13:05:52;101619.38;;;26.68;42.80
38616;BME280;24370;51.986;4.666;2022-10-31T13:08:29;101621.56;;;27.69;40.87
38616;BME280;24370;51.986;4.666;2022-10-31T13:11:07;101609.94;;;26.89;43.01
38616;BME280;24370;51.986;4.666;2022-10-31T13:13:41;101602.44;;;27.48;41.36
38616;BME280;24370;51.986;4.666;2022-10-31T13:16:15;101595.06;;;27.11;41.93
38616;BME280;24370;51.986;4.666;2022-10-31T13:18:55;101584.59;;;26.53;42.92
38616;BME280;24370;51.986;4.666;2022-10-31T13:21:26;101593.56;;;26.52;42.80
38616;BME280;24370;51.986;4.666;2022-10-31T13:23:52;101584.38;;;26.56;43.38
38616;BME280;24370;51.986;4.666;2022-10-31T13:26:42;101579.38;;;27.05;42.31
38616;BME280;24370;51.986;4.666;2022-10-31T13:29:11;101580.56;;;27.41;41.62
38616;BME280;24370;51.986;4.666;2022-10-31T13:31:41;101577.41;;;27.34;41.89
38616;BME280;24370;51.986;4.666;2022-10-31T13:34:28;101573.34;;;26.88;42.55
38616;BME280;24370;51.986;4.666;2022-10-31T13:40:12;101560.97;;;27.26;41.89
38616;BME280;24370;51.986;4.666;2022-10-31T13:45:48;101547.66;;;27.50;41.60
38616;BME280;24370;51.986;4.666;2022-10-31T13:50:40;101539.16;;;27.05;42.06
38616;BME280;24370;51.986;4.666;2022-10-31T13:53:11;101532.19;;;27.15;42.19
38616;BME280;24370;51.986;4.666;2022-10-31T13:55:38;101529.41;;;27.30;42.02
38616;BME280;24370;51.986;4.666;2022-10-31T13:58:19;101530.91;;;27.08;42.39
38616;BME280;24370;51.986;4.666;2022-10-31T14:00:45;101536.78;;;26.87;42.90
38616;BME280;24370;51.986;4.666;2022-10-31T14:03:18;101534.84;;;26.89;42.81
38616;BME280;24370;51.986;4.666;2022-10-31T14:05:52;101525.25;;;27.38;41.88
38616;BME280;24370;51.986;4.666;2022-10-31T14:08:21;101523.59;;;27.10;42.74
38616;BME280;24370;51.986;4.666;2022-10-31T14:10:49;101523.44;;;26.73;43.26
38616;BME280;24370;51.986;4.666;2022-10-31T14:13:24;101516.94;;;27.03;42.60
38616;BME280;24370;51.986;4.666;2022-10-31T14:15:57;101506.88;;;27.19;41.76
38616;BME280;24370;51.986;4.666;2022-10-31T14:18:30;101500.63;;;27.19;42.21
38616;BME280;24370;51.986;4.666;2022-10-31T14:20:56;101489.13;;;27.30;41.93
38616;BME280;24370;51.986;4.666;2022-10-31T14:28:41;101485.84;;;26.87;42.77
38616;BME280;24370;51.986;4.666;2022-10-31T14:31:32;101469.72;;;27.13;42.19
38616;BME280;24370;51.986;4.666;2022-10-31T14:36:56;101455.56;;;26.85;42.66
38616;BME280;24370;51.986;4.666;2022-10-31T14:42:08;101439.38;;;26.87;42.92
38616;BME280;24370;51.986;4.666;2022-10-31T14:44:48;101445.28;;;26.79;42.88
38616;BME280;24370;51.986;4.666;2022-10-31T14:47:31;101435.19;;;26.83;43.19
38616;BME280;24370;51.986;4.666;2022-10-31T14:50:21;101426.50;;;27.05;42.63
38616;BME280;24370;51.986;4.666;2022-10-31T14:52:54;101419.69;;;26.48;43.79
38616;BME280;24370;51.986;4.666;2022-10-31T14:55:23;101416.63;;;25.72;45.38
38616;BME280;24370;51.986;4.666;2022-10-31T14:57:54;101409.50;;;25.85;44.90
38616;BME280;24370;51.986;4.666;2022-10-31T15:00:21;101403.69;;;25.79;45.58
38616;BME280;24370;51.986;4.666;2022-10-31T15:03:05;101407.72;;;25.99;45.23
38616;BME280;24370;51.986;4.666;2022-10-31T15:05:34;101403.47;;;25.40;46.24
38616;BME280;24370;51.986;4.666;2022-10-31T15:08:14;101398.91;;;25.13;47.03
38616;BME280;24370;51.986;4.666;2022-10-31T15:10:50;101392.56;;;25.29;46.43
38616;BME280;24370;51.986;4.666;2022-10-31T15:13:20;101383.22;;;25.50;46.22